| time (UTC) | temp F | wind direction | speed knots | gust knots | rain 1hr in | rain 24hr in | rain mn in | humidity % | barometer mb |
| 20260510161552 | 84 | 223 | 1.7 | 7.8 | 0.00 | 0.00 | 0.00 | 36 | 1015.2 |
| 20260510160057 | 84 | 331 | 2.6 | 5.2 | 0.00 | 0.00 | 0.00 | 40 | 1015.4 |
| 20260510154551 | 82 | 5 | 0.9 | 5.2 | 0.00 | 0.00 | 0.00 | 40 | 1015.3 |
| 20260510153038 | 81 | 195 | 0.0 | 3.5 | 0.00 | 0.00 | 0.00 | 47 | 1015.3 |
| 20260510151534 | 80 | 292 | 0.9 | 4.3 | 0.00 | 0.00 | 0.00 | 47 | 1015.3 |
| 20260510150030 | 79 | 15 | 0.0 | 2.6 | 0.00 | 0.00 | 0.00 | 52 | 1015.3 |
| 20260510144527 | 77 | 260 | 0.9 | 3.5 | 0.00 | 0.00 | 0.00 | 54 | 1015.3 |
| 20260510143022 | 75 | 337 | 0.9 | 2.6 | 0.00 | 0.00 | 0.00 | 60 | 1015.4 |
| 20260510141517 | 72 | 310 | 0.0 | 4.3 | 0.00 | 0.00 | 0.00 | 62 | 1015.4 |
| 20260510140013 | 70 | 312 | 0.9 | 4.3 | 0.00 | 0.00 | 0.00 | 68 | 1015.5 |
| 20260510134509 | 66 | 10 | 0.9 | 2.6 | 0.00 | 0.00 | 0.00 | 78 | 1015.4 |
| 20260510133004 | 63 | 312 | 0.9 | 3.5 | 0.00 | 0.00 | 0.00 | 91 | 1015.3 |
| 20260510131501 | 61 | 242 | 0.0 | 2.6 | 0.00 | 0.00 | 0.00 | 94 | 1015.5 |
| 20260510130059 | 60 | 238 | 0.9 | 2.6 | 0.00 | 0.00 | 0.00 | 95 | 1015.6 |
| 20260510124610 | 59 | 217 | 0.0 | 1.7 | 0.00 | 0.00 | 0.00 | 95 | 1015.5 |
| 20260510123055 | 58 | 10 | 0.0 | 0.9 | 0.00 | 0.00 | 0.00 | 95 | 1015.5 |
| 20260510121552 | 56 | 10 | 0.0 | 0.9 | 0.00 | 0.00 | 0.00 | 95 | 1015.3 |
| 20260510120051 | 55 | 217 | 0.0 | 0.0 | 0.00 | 0.00 | 0.00 | 94 | 1015.0 |
| 20260510114548 | 53 | 217 | 0.0 | 0.0 | 0.00 | 0.00 | 0.00 | 94 | 1014.7 |
| 20260510113056 | 53 | 10 | 0.0 | 0.0 | 0.00 | 0.00 | 0.00 | 93 | 1014.7 |
| 20260510111602 | 53 | 217 | 0.0 | 0.0 | 0.00 | 0.00 | 0.00 | 93 | 1014.4 |
| 20260510110042 | 53 | 217 | 0.0 | 0.0 | 0.00 | 0.00 | 0.00 | 92 | 1014.1 |
| 20260510104551 | 53 | 217 | 0.0 | 0.0 | 0.00 | 0.00 | 0.00 | 92 | 1013.8 |
| 20260510103039 | 53 | 217 | 0.0 | 0.0 | 0.00 | 0.00 | 0.00 | 92 | 1013.7 |
| 20260510101538 | 54 | 217 | 0.0 | 0.0 | 0.00 | 0.00 | 0.00 | 92 | 1013.4 |
| 20260510100035 | 54 | 217 | 0.0 | 0.0 | 0.00 | 0.00 | 0.00 | 92 | 1013.3 |
| 20260510094531 | 55 | 217 | 0.0 | 0.0 | 0.00 | 0.00 | 0.00 | 92 | 1013.2 |
| 20260510093028 | 55 | 217 | 0.0 | 0.0 | 0.00 | 0.00 | 0.00 | 92 | 1013.2 |
| 20260510091546 | 55 | 217 | 0.0 | 0.9 | 0.00 | 0.00 | 0.00 | 92 | 1013.1 |
| 20260510090025 | 56 | 217 | 0.0 | 0.0 | 0.00 | 0.00 | 0.00 | 92 | 1012.8 |
| 20260510084525 | 56 | 217 | 0.0 | 0.0 | 0.00 | 0.00 | 0.00 | 92 | 1012.5 |
| 20260510083021 | 57 | 217 | 0.0 | 0.0 | 0.00 | 0.00 | 0.00 | 92 | 1012.4 |
| 20260510081532 | 57 | 216 | 0.0 | 0.0 | 0.00 | 0.00 | 0.00 | 92 | 1012.2 |
| 20260510080020 | 57 | 216 | 0.0 | 0.0 | 0.00 | 0.00 | 0.00 | 92 | 1012.0 |
| 20260510074517 | 58 | 216 | 0.0 | 0.9 | 0.00 | 0.00 | 0.00 | 92 | 1011.9 |
| 20260510073024 | 58 | 216 | 0.0 | 2.6 | 0.00 | 0.00 | 0.00 | 92 | 1011.9 |
| 20260510071517 | 58 | 173 | 2.6 | 5.2 | 0.00 | 0.00 | 0.00 | 92 | 1011.9 |
| 20260510070021 | 58 | 220 | 0.0 | 0.0 | 0.00 | 0.00 | 0.00 | 92 | 1011.5 |
| 20260510064539 | 58 | 220 | 0.0 | 0.0 | 0.00 | 0.00 | 0.00 | 91 | 1011.8 |
| 20260510063017 | 58 | 220 | 0.0 | 0.0 | 0.00 | 0.00 | 0.00 | 91 | 1011.8 |
| 20260510061512 | 58 | 220 | 0.0 | 0.0 | 0.00 | 0.00 | 0.00 | 91 | 1011.9 |
| 20260510060023 | 59 | 220 | 0.0 | 0.0 | 0.00 | 0.00 | 0.00 | 90 | 1012.0 |
| 20260510054505 | 59 | 220 | 0.0 | 0.0 | 0.00 | 0.00 | 0.00 | 90 | 1012.3 |
| 20260510053002 | 60 | 220 | 0.0 | 0.0 | 0.00 | 0.00 | 0.00 | 90 | 1012.3 |
| 20260510051610 | 60 | 220 | 0.0 | 0.0 | 0.00 | 0.00 | 0.00 | 90 | 1012.5 |
| 20260510050117 | 60 | 220 | 0.0 | 0.0 | 0.00 | 0.00 | 0.00 | 89 | 1012.3 |
| 20260510044609 | 61 | 220 | 0.0 | 0.0 | 0.00 | 0.00 | 0.00 | 89 | 1012.3 |
| 20260510043056 | 61 | 220 | 0.0 | 0.0 | 0.00 | 0.00 | 0.00 | 89 | 1012.2 |
| 20260510041606 | 61 | 220 | 0.0 | 0.0 | 0.00 | 0.00 | 0.00 | 88 | 1012.3 |
| 20260510040053 | 62 | 220 | 0.0 | 0.0 | 0.00 | 0.00 | 0.00 | 88 | 1012.3 |
| 20260510034558 | 62 | 220 | 0.0 | 0.9 | 0.00 | 0.00 | 0.00 | 87 | 1012.2 |
| 20260510033051 | 62 | 220 | 0.0 | 0.9 | 0.00 | 0.00 | 0.00 | 86 | 1012.2 |
| 20260510031557 | 63 | 220 | 0.0 | 0.0 | 0.00 | 0.00 | 0.00 | 85 | 1012.1 |
| 20260510030057 | 63 | 220 | 0.0 | 0.9 | 0.00 | 0.00 | 0.00 | 85 | 1012.0 |
| 20260510024552 | 64 | 220 | 0.0 | 0.9 | 0.00 | 0.00 | 0.00 | 83 | 1011.9 |
| 20260510023048 | 65 | 219 | 0.0 | 1.7 | 0.00 | 0.00 | 0.00 | 82 | 1011.8 |
| 20260510021548 | 65 | 219 | 0.0 | 1.7 | 0.00 | 0.00 | 0.00 | 81 | 1011.7 |
| 20260510020048 | 66 | 215 | 0.0 | 3.5 | 0.00 | 0.00 | 0.00 | 80 | 1011.5 |
| 20260510014546 | 67 | 199 | 0.0 | 2.6 | 0.00 | 0.00 | 0.00 | 78 | 1011.1 |
| 20260510013052 | 67 | 180 | 1.7 | 4.3 | 0.00 | 0.00 | 0.00 | 77 | 1010.9 |
| 20260510011546 | 68 | 202 | 0.9 | 2.6 | 0.00 | 0.00 | 0.00 | 75 | 1010.6 |
| 20260510010045 | 69 | 202 | 0.9 | 5.2 | 0.00 | 0.00 | 0.00 | 74 | 1010.4 |
| 20260510004545 | 70 | 225 | 0.0 | 3.5 | 0.00 | 0.00 | 0.00 | 72 | 1010.2 |
| 20260510003053 | 71 | 247 | 0.0 | 2.6 | 0.00 | 0.00 | 0.00 | 70 | 1010.2 |
| 20260510001542 | 71 | 200 | 0.0 | 1.7 | 0.00 | 0.00 | 0.00 | 69 | 1010.2 |
| 20260510000042 | 72 | 208 | 0.0 | 5.2 | 0.00 | 0.00 | 0.00 | 68 | 1009.9 |
| 20260509234557 | 73 | 252 | 3.5 | 7.0 | 0.00 | 0.00 | 0.00 | 66 | 1009.6 |
| 20260509233046 | 73 | 211 | 3.5 | 9.6 | 0.00 | 0.00 | 0.00 | 64 | 1009.7 |
| 20260509231600 | 74 | 238 | 0.9 | 7.0 | 0.00 | 0.00 | 0.00 | 63 | 1009.3 |
| 20260509230040 | 74 | 166 | 1.7 | 13.0 | 0.00 | 0.00 | 0.00 | 62 | 1009.2 |
| 20260509224541 | 74 | 235 | 1.7 | 7.0 | 0.00 | 0.00 | 0.00 | 63 | 1009.2 |
| 20260509223039 | 75 | 194 | 0.9 | 5.2 | 0.00 | 0.00 | 0.00 | 63 | 1009.1 |
| 20260509221540 | 75 | 223 | 1.7 | 7.8 | 0.00 | 0.00 | 0.00 | 61 | 1009.3 |
| 20260509220039 | 76 | 171 | 2.6 | 10.4 | 0.00 | 0.00 | 0.00 | 60 | 1009.1 |
| 20260509214537 | 76 | 228 | 1.7 | 11.3 | 0.00 | 0.00 | 0.00 | 58 | 1009.1 |
| 20260509213036 | 77 | 194 | 1.7 | 7.0 | 0.00 | 0.00 | 0.00 | 58 | 1009.0 |
| 20260509211535 | 78 | 142 | 1.7 | 10.4 | 0.00 | 0.00 | 0.00 | 57 | 1008.7 |
| 20260509210038 | 78 | 260 | 3.5 | 9.6 | 0.00 | 0.00 | 0.00 | 56 | 1008.9 |
| 20260509204535 | 79 | 249 | 1.7 | 7.0 | 0.00 | 0.00 | 0.00 | 56 | 1008.8 |
| 20260509203036 | 78 | 219 | 0.9 | 7.0 | 0.00 | 0.00 | 0.00 | 58 | 1009.0 |
| 20260509201526 | 76 | 331 | 2.6 | 9.6 | 0.00 | 0.00 | 0.00 | 61 | 1009.0 |
| 20260509200025 | 75 | 108 | 4.3 | 7.0 | 0.00 | 0.00 | 0.00 | 62 | 1009.2 |
| 20260509194526 | 75 | 244 | 2.6 | 9.6 | 0.00 | 0.00 | 0.00 | 61 | 1009.4 |
| 20260509193022 | 75 | 119 | 1.7 | 6.1 | 0.00 | 0.00 | 0.00 | 62 | 1009.3 |
| 20260509191523 | 74 | 121 | 1.7 | 7.8 | 0.00 | 0.00 | 0.00 | 61 | 1009.6 |
| 20260509190021 | 75 | 152 | 2.6 | 7.0 | 0.00 | 0.00 | 0.00 | 60 | 1009.7 |
| 20260509184529 | 75 | 180 | 4.3 | 10.4 | 0.00 | 0.00 | 0.00 | 60 | 1009.8 |
| 20260509183028 | 76 | 225 | 5.2 | 9.6 | 0.00 | 0.00 | 0.00 | 55 | 1009.9 |
| 20260509181519 | 75 | 184 | 5.2 | 8.7 | 0.00 | 0.00 | 0.00 | 57 | 1010.4 |
| 20260509180019 | 76 | 294 | 4.3 | 11.3 | 0.00 | 0.00 | 0.00 | 55 | 1010.5 |
| 20260509174511 | 74 | 184 | 5.2 | 12.2 | 0.00 | 0.00 | 0.00 | 59 | 1010.5 |
| 20260509173016 | 74 | 277 | 2.6 | 7.8 | 0.00 | 0.00 | 0.00 | 59 | 1010.6 |
| 20260509171520 | 74 | 190 | 2.6 | 10.4 | 0.00 | 0.00 | 0.00 | 59 | 1010.8 |
| 20260509170008 | 73 | 159 | 4.3 | 15.6 | 0.00 | 0.00 | 0.00 | 59 | 1010.9 |
| 20260509164505 | 73 | 254 | 3.5 | 10.4 | 0.00 | 0.00 | 0.00 | 61 | 1011.3 |
| 20260509163002 | 73 | 129 | 5.2 | 11.3 | 0.00 | 0.00 | 0.00 | 61 | 1011.7 |